KDHT/DHT METAR and TAF weather

Enter ICAO airport designator
Station Type Date Time Source
KDHT METAR 2018/07/21 03:53 UTC NOAA

KDHT 210353Z AUTO 28003KT 10SM CLR 32/07 A3009 RMK AO2 PK WND 26028/0309 WSHFT 0305 SLP110 T03170072 TSNO


Station Type Date Time Source
KDHT Decoded METAR 2018/07/21 03:53 UTC NOAA

DALHART MUNICIPAL AIRPORT, TX, United States (KDHT) 36-01N 102-33W 1217M
Jul 20, 2018 - 11:53 PM EDT / 2018.07.21 0353 UTC
Wind: from the W (280 degrees) at 3 MPH (3 KT):0
Visibility: 10 mile(s):0
Sky conditions: clear
Temperature: 89.1 F (31.7 C)
Dew Point: 45.0 F (7.2 C)
Relative Humidity: 21%
Pressure (altimeter): 30.09 in. Hg (1018 hPa)
ob: KDHT 210353Z AUTO 28003KT 10SM CLR 32/07 A3009 RMK AO2 PK WND 26028/0309 WSHFT 0305 SLP110 T03170072 TSNO
cycle: 4

Station Type Date Time Source
KDHT TAF 2018/07/20 18:40 UTC NOAA

TAF KDHT 201737Z 2018/2118 21015G23KT P6SM SCT100 SCT250
FM210200 21012KT P6SM SCT250
FM210900 36007KT P6SM BKN250


Example: see airport list